Time;durP1;ratioP1;P1;durP2;ratioP2;P2;SDS_P1;SDS_P2;PMS_P1;PMS_P2;Temp;Humidity;BMP_temperature;BMP_pressure;BME280_temperature;BME280_humidity;BME280_pressure;Samples;Min_cycle;Max_cycle;Signal;HPM_P1;HPM_P2
2021/01/04 00:01:29;;;;;;;;;;;;;;;-5.13;40.98;103023.28;4945816;29;19914;-83
2021/01/04 00:04:04;;;;;;;;;;;;;;;-5.06;41.21;103049.94;4985638;28;19941;-83
2021/01/04 00:06:39;;;;;;;;;;;;;;;-4.75;40.32;103050.84;5017079;28;19914;-83
2021/01/04 00:09:31;;;;;;;;;;;;;;;-4.49;39.88;103051.06;5017144;28;19910;-82
2021/01/04 00:12:18;;;;;;;;;;;;;;;-4.36;39.13;103052.06;4981495;28;19925;-84
2021/01/04 00:14:54;;;;;;;;;;;;;;;-4.15;39.12;103049.00;4979187;28;19921;-85
2021/01/04 00:17:39;;;;;;;;;;;;;;;-4.27;38.39;103054.19;5018598;28;19914;-82
2021/01/04 00:20:15;;;;;;;;;;;;;;;-4.08;37.41;103058.50;5001743;28;20295;-83
2021/01/04 00:22:48;;;;;;;;;;;;;;;-4.13;37.53;103058.78;5019175;28;19914;-86
2021/01/04 00:25:30;;;;;;;;;;;;;;;-4.18;37.68;103069.00;4989338;28;19914;-83
2021/01/04 00:28:04;;;;;;;;;;;;;;;-3.92;37.26;103069.19;4990686;28;19914;-83
2021/01/04 00:30:36;;;;;;;;;;;;;;;-3.99;37.39;103066.03;4988750;28;19961;-84
2021/01/04 00:33:04;;;;;;;;;;;;;;;-3.85;37.25;103072.41;5020821;28;19960;-85
2021/01/04 00:35:35;;;;;;;;;;;;;;;-4.09;37.32;103070.28;5020316;28;19914;-84
2021/01/04 00:38:20;;;;;;;;;;;;;;;-4.04;37.29;103061.88;4990296;28;19973;-86
2021/01/04 00:41:22;;;;;;;;;;;;;;;-3.85;36.72;103073.25;4991057;28;19921;-82
2021/01/04 00:43:59;;;;;;;;;;;;;;;-3.87;36.46;103048.13;4930592;29;19974;-83
2021/01/04 00:46:31;;;;;;;;;;;;;;;-3.87;36.27;103048.13;4995443;28;19914;-83
2021/01/04 00:49:07;;;;;;;;;;;;;;;-4.05;36.17;103047.47;4989461;28;19918;-82
2021/01/04 00:51:59;;;;;;;;;;;;;;;-3.80;36.32;103051.31;4987149;28;19914;-83
2021/01/04 00:54:44;;;;;;;;;;;;;;;-3.68;35.91;103065.03;4987759;28;19961;-83
2021/01/04 00:57:27;;;;;;;;;;;;;;;-3.73;36.09;103052.66;4990734;28;19914;-82
2021/01/04 01:00:06;;;;;;;;;;;;;;;-3.61;35.92;103044.72;4990094;28;19925;-81
2021/01/04 01:02:51;;;;;;;;;;;;;;;-3.69;36.04;103038.94;4984992;28;19914;-85
2021/01/04 01:05:35;;;;;;;;;;;;;;;-3.57;35.82;103036.31;5008997;28;19918;-86
2021/01/04 01:08:07;;;;;;;;;;;;;;;-3.50;36.06;103047.59;4977176;28;19906;-89
2021/01/04 01:10:39;;;;;;;;;;;;;;;-3.52;35.39;103035.13;5007248;28;20020;-87
2021/01/04 01:13:05;;;;;;;;;;;;;;;-3.60;35.90;103027.50;5007805;28;19918;-88
2021/01/04 01:15:34;;;;;;;;;;;;;;;-3.65;36.06;103032.34;5008928;28;19921;-85
2021/01/04 01:18:16;;;;;;;;;;;;;;;-3.55;35.95;103033.50;4979070;28;19914;-84
2021/01/04 01:20:45;;;;;;;;;;;;;;;-3.29;35.43;103030.91;4977789;28;20268;-87
2021/01/04 01:23:12;;;;;;;;;;;;;;;-3.18;34.33;103006.69;4976834;28;19945;-89
2021/01/04 01:25:40;;;;;;;;;;;;;;;-3.31;34.43;103024.72;5008103;28;19918;-86
2021/01/04 01:28:25;;;;;;;;;;;;;;;-3.23;34.29;103019.66;5010464;28;20437;-85
2021/01/04 01:31:16;;;;;;;;;;;;;;;-3.31;33.32;103032.84;5007615;28;19972;-89
2021/01/04 01:34:02;;;;;;;;;;;;;;;-3.40;32.88;103036.19;4979757;28;19913;-87
2021/01/04 01:36:45;;;;;;;;;;;;;;;-3.48;33.36;103031.25;5014888;28;19918;-84
2021/01/04 01:39:33;;;;;;;;;;;;;;;-3.44;33.05;103017.41;4984846;28;19940;-82
2021/01/04 01:42:17;;;;;;;;;;;;;;;-3.30;33.44;103015.63;4987385;28;20007;-81
2021/01/04 01:44:51;;;;;;;;;;;;;;;-3.20;32.88;103011.31;5001426;28;20424;-82
2021/01/04 01:47:38;;;;;;;;;;;;;;;-3.53;33.81;103001.75;4997587;28;19941;-81
2021/01/04 01:50:14;;;;;;;;;;;;;;;-3.34;33.98;103000.53;4946295;29;19914;-82
2021/01/04 01:52:47;;;;;;;;;;;;;;;-3.38;34.10;103012.56;4976851;28;19933;-82
2021/01/04 01:55:32;;;;;;;;;;;;;;;-3.23;34.30;103003.41;5014030;28;19918;-85
2021/01/04 01:58:09;;;;;;;;;;;;;;;-3.46;34.63;103000.38;4995391;28;19920;-82
2021/01/04 02:00:43;;;;;;;;;;;;;;;-3.27;33.82;102990.16;5014448;28;19918;-83
2021/01/04 02:03:27;;;;;;;;;;;;;;;-3.31;34.29;102981.38;4985239;28;19918;-83
2021/01/04 02:05:53;;;;;;;;;;;;;;;-3.48;35.15;102977.97;5017970;28;19914;-82
2021/01/04 02:08:23;;;;;;;;;;;;;;;-3.80;36.11;102971.94;5017302;28;19917;-81
2021/01/04 02:10:52;;;;;;;;;;;;;;;-3.56;36.08;102969.47;4985006;28;19918;-82
2021/01/04 02:13:24;;;;;;;;;;;;;;;-3.62;36.51;102978.84;5002373;28;19969;-82
2021/01/04 02:15:56;;;;;;;;;;;;;;;-3.41;36.65;102974.84;4986449;28;20441;-81
2021/01/04 02:18:28;;;;;;;;;;;;;;;-3.28;37.04;102967.59;4986594;28;19960;-83
2021/01/04 02:20:57;;;;;;;;;;;;;;;-3.26;37.07;102954.84;4989018;28;19921;-84
2021/01/04 02:23:43;;;;;;;;;;;;;;;-3.26;37.35;102937.72;5020027;28;19918;-83
2021/01/04 02:26:15;;;;;;;;;;;;;;;-3.30;37.77;102940.66;5019002;28;20388;-82
2021/01/04 02:28:49;;;;;;;;;;;;;;;-3.32;37.63;102928.16;5018933;28;19914;-83
2021/01/04 02:31:15;;;;;;;;;;;;;;;-3.33;37.88;102931.84;5019750;28;19925;-82
2021/01/04 02:33:42;;;;;;;;;;;;;;;-3.22;37.25;102931.13;5018452;28;19924;-82
2021/01/04 02:36:13;;;;;;;;;;;;;;;-3.22;37.56;102912.16;5016391;28;20387;-83
2021/01/04 02:38:44;;;;;;;;;;;;;;;-3.28;37.76;102905.28;5017809;28;19918;-82
2021/01/04 02:41:12;;;;;;;;;;;;;;;-3.31;38.33;102897.38;4985649;28;19914;-83
2021/01/04 02:43:39;;;;;;;;;;;;;;;-3.19;38.14;102893.84;4986296;28;20282;-81
2021/01/04 02:46:12;;;;;;;;;;;;;;;-2.96;38.11;102879.66;4986765;28;19906;-82
2021/01/04 02:48:59;;;;;;;;;;;;;;;-2.91;38.56;102882.91;4988260;28;19913;-83
2021/01/04 02:51:30;;;;;;;;;;;;;;;-2.90;38.25;102880.06;4982718;28;19910;-84
2021/01/04 02:54:02;;;;;;;;;;;;;;;-3.14;38.95;102881.81;4983304;28;19924;-85
2021/01/04 02:56:36;;;;;;;;;;;;;;;-3.10;39.28;102883.34;5018843;28;19977;-85
2021/01/04 02:59:21;;;;;;;;;;;;;;;-3.02;40.20;102887.22;5015531;28;19921;-81
2021/01/04 03:01:56;;;;;;;;;;;;;;;-2.71;39.26;102884.22;5001339;28;19988;-83
2021/01/04 03:04:24;;;;;;;;;;;;;;;-2.71;39.14;102889.63;5014147;28;19918;-82
2021/01/04 03:07:08;;;;;;;;;;;;;;;-2.33;38.57;102882.41;4985072;28;19926;-82
2021/01/04 03:09:35;;;;;;;;;;;;;;;-2.17;38.78;102860.47;4978626;28;19925;-87
2021/01/04 03:12:04;;;;;;;;;;;;;;;-2.26;39.27;102850.28;4991255;28;19961;-85
2021/01/04 03:14:50;;;;;;;;;;;;;;;-2.00;38.17;102855.63;4990549;28;19921;-87
2021/01/04 03:17:35;;;;;;;;;;;;;;;-2.24;38.90;102837.47;4983686;28;19914;-83
2021/01/04 03:20:04;;;;;;;;;;;;;;;-2.12;38.54;102813.97;4993961;28;20366;-87
2021/01/04 03:22:31;;;;;;;;;;;;;;;-2.04;38.22;102805.28;4973916;28;19945;-87
2021/01/04 03:24:57;;;;;;;;;;;;;;;-2.26;38.68;102809.59;4977549;28;20018;-85
2021/01/04 03:27:29;;;;;;;;;;;;;;;-1.98;38.29;102812.91;4973028;28;19925;-86
2021/01/04 03:29:55;;;;;;;;;;;;;;;-1.83;38.02;102805.47;5005977;28;20016;-87
2021/01/04 03:32:21;;;;;;;;;;;;;;;-1.84;38.43;102785.59;4973965;28;19954;-86
2021/01/04 03:34:49;;;;;;;;;;;;;;;-1.85;38.50;102783.84;4983955;28;20294;-82
2021/01/04 03:37:17;;;;;;;;;;;;;;;-2.01;38.79;102776.03;4989202;28;19918;-83
2021/01/04 03:39:43;;;;;;;;;;;;;;;-1.77;37.98;102757.97;5010423;28;20363;-84
2021/01/04 03:42:11;;;;;;;;;;;;;;;-1.89;38.47;102754.34;5009044;28;19965;-82
2021/01/04 03:44:38;;;;;;;;;;;;;;;-1.87;38.83;102742.38;4983552;28;19914;-85
2021/01/04 03:47:04;;;;;;;;;;;;;;;-2.20;38.42;102628.16;4983926;28;19928;-86
2021/01/04 03:49:30;;;;;;;;;;;;;;;-1.50;38.06;102743.22;5005209;28;19966;-88
2021/01/04 03:51:58;;;;;;;;;;;;;;;-1.63;38.84;102744.19;4973558;28;19984;-86
2021/01/04 03:54:25;;;;;;;;;;;;;;;-1.38;38.53;102755.84;5004679;28;19914;-87
2021/01/04 03:56:52;;;;;;;;;;;;;;;-1.27;38.35;102757.69;4978461;28;19914;-84
2021/01/04 03:59:18;;;;;;;;;;;;;;;-0.86;38.34;102761.69;4993051;28;19933;-88
2021/01/04 04:01:48;;;;;;;;;;;;;;;-0.94;37.87;102755.13;4978746;28;19929;-86
2021/01/04 04:04:15;;;;;;;;;;;;;;;-1.20;38.66;102749.94;4993278;28;19918;-89
2021/01/04 04:06:41;;;;;;;;;;;;;;;-0.93;38.65;102752.28;4976828;28;20302;-88
2021/01/04 04:09:08;;;;;;;;;;;;;;;-0.81;38.98;102747.72;5008453;28;19914;-87
2021/01/04 04:11:34;;;;;;;;;;;;;;;-0.67;38.61;102745.72;4991988;28;19921;-86
2021/01/04 04:14:00;;;;;;;;;;;;;;;-0.53;38.41;102748.16;5007537;28;19920;-88
2021/01/04 04:16:26;;;;;;;;;;;;;;;-0.46;38.07;102743.91;4991259;28;19953;-88
2021/01/04 04:18:52;;;;;;;;;;;;;;;-0.40;37.97;102742.56;4976267;28;19918;-87
2021/01/04 04:21:19;;;;;;;;;;;;;;;-0.79;38.87;102737.56;4975209;28;19918;-87
2021/01/04 04:23:51;;;;;;;;;;;;;;;-0.89;39.11;102742.88;4983104;28;19960;-85
2021/01/04 04:26:18;;;;;;;;;;;;;;;-0.76;39.61;102748.22;5008017;28;19922;-89
2021/01/04 04:28:44;;;;;;;;;;;;;;;-0.62;39.19;102740.75;4976246;28;19949;-87
2021/01/04 04:31:11;;;;;;;;;;;;;;;-0.65;38.61;102739.13;4975708;28;19918;-89
2021/01/04 04:33:38;;;;;;;;;;;;;;;-0.65;38.94;102736.41;5006848;28;20363;-86
2021/01/04 04:36:04;;;;;;;;;;;;;;;-0.33;38.17;102721.13;4975537;28;19914;-88
2021/01/04 04:38:31;;;;;;;;;;;;;;;-0.35;38.94;102717.69;4975709;28;20028;-87
2021/01/04 04:40:57;;;;;;;;;;;;;;;-0.72;40.24;102717.03;5006809;28;20398;-86
2021/01/04 04:43:52;;;;;;;;;;;;;;;-0.76;40.86;102710.13;4974966;28;19914;-85
2021/01/04 04:46:28;;;;;;;;;;;;;;;-1.03;41.31;102700.50;4967342;28;19918;-87
2021/01/04 04:48:55;;;;;;;;;;;;;;;-0.81;40.76;102701.47;5007097;28;19922;-87
2021/01/04 04:51:24;;;;;;;;;;;;;;;-0.65;40.39;102697.47;5006609;28;19918;-86
2021/01/04 04:54:02;;;;;;;;;;;;;;;-0.48;39.84;102685.19;4975558;28;19921;-86
2021/01/04 04:56:28;;;;;;;;;;;;;;;-0.34;39.68;102695.78;5006372;28;20382;-86
2021/01/04 04:59:04;;;;;;;;;;;;;;;-0.53;39.26;102687.44;5006986;28;19918;-88
2021/01/04 05:01:30;;;;;;;;;;;;;;;-0.68;39.64;102671.38;5008459;28;19918;-87
2021/01/04 05:04:20;;;;;;;;;;;;;;;-0.63;39.92;102671.88;5007628;28;19924;-88
2021/01/04 05:06:56;;;;;;;;;;;;;;;-0.60;39.28;102662.59;4990085;28;19910;-84
2021/01/04 05:09:40;;;;;;;;;;;;;;;-0.75;39.68;102670.16;5009336;28;20374;-86
2021/01/04 05:12:10;;;;;;;;;;;;;;;-0.85;39.18;102661.91;4976850;28;20452;-87
2021/01/04 05:14:40;;;;;;;;;;;;;;;-0.93;39.63;102653.50;4976474;28;19961;-88
2021/01/04 05:17:25;;;;;;;;;;;;;;;-0.71;39.20;102658.91;4976563;28;19914;-88
2021/01/04 05:20:06;;;;;;;;;;;;;;;-0.48;38.83;102650.66;4990680;28;19920;-87
2021/01/04 05:22:51;;;;;;;;;;;;;;;-0.40;38.90;102660.03;5006993;28;19914;-88
2021/01/04 05:25:38;;;;;;;;;;;;;;;-0.20;39.22;102655.63;4990819;28;19917;-86
2021/01/04 05:28:23;;;;;;;;;;;;;;;-0.15;39.16;102667.84;4973790;28;19937;-86
2021/01/04 05:30:49;;;;;;;;;;;;;;;-0.32;39.95;102673.84;4989304;28;19929;-88
2021/01/04 05:33:15;;;;;;;;;;;;;;;-0.92;42.12;102672.44;5005867;28;20366;-88
2021/01/04 05:35:43;;;;;;;;;;;;;;;-0.53;41.56;102674.69;4974629;28;19929;-86
2021/01/04 05:38:19;;;;;;;;;;;;;;;-0.43;41.10;102680.22;4973579;28;20326;-86
2021/01/04 05:40:52;;;;;;;;;;;;;;;-0.59;41.67;102677.94;4974665;28;19914;-87
2021/01/04 05:43:28;;;;;;;;;;;;;;;-0.73;41.65;102673.63;4989883;28;19914;-83
2021/01/04 05:46:03;;;;;;;;;;;;;;;-1.12;42.77;102669.47;4974948;28;19941;-86
2021/01/04 05:48:47;;;;;;;;;;;;;;;-1.60;43.83;102667.03;5006930;28;19918;-89
2021/01/04 05:51:25;;;;;;;;;;;;;;;-1.46;43.99;102665.91;4976359;28;19968;-88
2021/01/04 05:53:52;;;;;;;;;;;;;;;-1.28;43.53;102667.16;4988927;28;19910;-88
2021/01/04 05:56:19;;;;;;;;;;;;;;;-1.01;43.16;102648.72;4974657;28;19914;-87
2021/01/04 05:58:45;;;;;;;;;;;;;;;-0.89;42.83;102655.00;5005904;28;19969;-87
2021/01/04 06:01:13;;;;;;;;;;;;;;;-0.92;42.56;102649.78;4973192;28;19914;-87
2021/01/04 06:03:40;;;;;;;;;;;;;;;-0.83;42.49;102649.91;4974397;28;19921;-88
2021/01/04 06:06:11;;;;;;;;;;;;;;;-0.71;42.70;102663.50;4989145;28;19918;-87
2021/01/04 06:08:37;;;;;;;;;;;;;;;-0.84;43.55;102655.47;5004931;28;19925;-87
2021/01/04 06:11:08;;;;;;;;;;;;;;;-1.02;45.40;102656.00;4973562;28;20264;-89
2021/01/04 06:13:35;;;;;;;;;;;;;;;-1.06;46.48;102653.66;5005722;28;20342;-86
2021/01/04 06:16:06;;;;;;;;;;;;;;;-1.12;48.13;102660.47;5005109;28;20347;-87
2021/01/04 06:18:32;;;;;;;;;;;;;;;-1.08;48.28;102650.22;4972033;28;19943;-86
2021/01/04 06:21:08;;;;;;;;;;;;;;;-0.88;46.92;102640.41;4972290;28;20389;-85
2021/01/04 06:23:35;;;;;;;;;;;;;;;-0.73;45.86;102644.56;5004698;28;19914;-86
2021/01/04 06:26:11;;;;;;;;;;;;;;;-0.55;45.48;102633.13;4973393;28;19918;-86
2021/01/04 06:28:56;;;;;;;;;;;;;;;-0.55;45.44;102641.28;4973520;28;19941;-85
2021/01/04 06:31:40;;;;;;;;;;;;;;;-0.45;45.74;102642.25;4973022;28;20020;-85
2021/01/04 06:34:15;;;;;;;;;;;;;;;-0.50;47.35;102619.13;5004453;28;19941;-85
2021/01/04 06:36:41;;;;;;;;;;;;;;;-0.61;48.48;102631.78;4973368;28;19918;-88
2021/01/04 06:39:10;;;;;;;;;;;;;;;-0.78;49.68;102635.91;4974770;28;20402;-89
2021/01/04 06:41:36;;;;;;;;;;;;;;;-0.83;50.82;102649.06;4976470;28;19917;-88
2021/01/04 06:44:13;;;;;;;;;;;;;;;-0.81;51.66;102636.19;4974991;28;19918;-87
2021/01/04 06:46:49;;;;;;;;;;;;;;;-0.73;51.59;102644.56;5005166;28;19922;-86
2021/01/04 06:49:20;;;;;;;;;;;;;;;-0.78;51.77;102646.81;5004831;28;19944;-87
2021/01/04 06:52:04;;;;;;;;;;;;;;;-0.76;51.73;102642.13;4973401;28;20345;-85
2021/01/04 06:54:30;;;;;;;;;;;;;;;-0.90;52.30;102628.81;4988598;28;19960;-87
2021/01/04 06:57:09;;;;;;;;;;;;;;;-0.84;52.44;102631.88;5004719;28;19997;-87
2021/01/04 06:59:54;;;;;;;;;;;;;;;-0.85;52.35;102634.69;5004270;28;19918;-86
2021/01/04 07:02:20;;;;;;;;;;;;;;;-0.77;52.04;102640.38;4987969;28;19933;-86
2021/01/04 07:04:52;;;;;;;;;;;;;;;-0.82;53.05;102642.63;5004934;28;19910;-87
2021/01/04 07:07:31;;;;;;;;;;;;;;;-1.08;53.17;102645.63;5004783;28;19937;-87
2021/01/04 07:10:08;;;;;;;;;;;;;;;-1.08;53.11;102636.63;5004844;28;19914;-89
2021/01/04 07:12:34;;;;;;;;;;;;;;;-1.00;53.42;102626.81;5004222;28;20016;-87
2021/01/04 07:15:23;;;;;;;;;;;;;;;-1.17;53.52;102620.09;5004119;28;20027;-86
2021/01/04 07:18:09;;;;;;;;;;;;;;;-1.01;53.45;102641.41;5004907;28;19925;-88
2021/01/04 07:20:45;;;;;;;;;;;;;;;-0.88;52.98;102629.53;4973001;28;19918;-89
2021/01/04 07:23:24;;;;;;;;;;;;;;;-1.15;53.97;102628.09;4975848;28;19914;-87
2021/01/04 07:26:08;;;;;;;;;;;;;;;-1.17;53.83;102627.34;5009361;28;20411;-88
2021/01/04 07:28:38;;;;;;;;;;;;;;;-1.09;54.07;102626.75;5006811;28;19996;-88
2021/01/04 07:31:24;;;;;;;;;;;;;;;-1.15;54.87;102628.09;4977041;28;19972;-88
2021/01/04 07:34:10;;;;;;;;;;;;;;;-1.14;55.76;102627.09;4975289;28;19918;-86
2021/01/04 07:36:52;;;;;;;;;;;;;;;-1.18;55.47;102636.50;4957178;28;19996;-90
2021/01/04 07:39:36;;;;;;;;;;;;;;;-1.17;55.97;102635.50;5008593;28;19951;-88
2021/01/04 07:42:09;;;;;;;;;;;;;;;-1.12;56.71;102628.69;4993649;28;19925;-85
2021/01/04 07:44:59;;;;;;;;;;;;;;;-1.13;56.23;102620.69;5011535;28;19952;-87
2021/01/04 07:47:41;;;;;;;;;;;;;;;-1.13;56.31;102621.53;5008264;28;19918;-87
2021/01/04 07:50:13;;;;;;;;;;;;;;;-1.36;56.50;102603.53;5009478;28;19922;-86
2021/01/04 07:52:46;;;;;;;;;;;;;;;-1.33;56.78;102606.00;5012527;28;19913;-88
2021/01/04 07:55:30;;;;;;;;;;;;;;;-1.41;56.99;102621.06;5009670;28;20318;-86
2021/01/04 07:57:59;;;;;;;;;;;;;;;-1.45;57.44;102610.56;4999567;28;20433;-83
2021/01/04 08:00:29;;;;;;;;;;;;;;;-1.43;57.70;102604.03;5009456;28;20310;-89
2021/01/04 08:03:17;;;;;;;;;;;;;;;-1.46;57.59;102587.13;5009125;28;19914;-88
2021/01/04 08:05:49;;;;;;;;;;;;;;;-1.60;58.62;102586.38;4978224;28;19967;-84
2021/01/04 08:08:39;;;;;;;;;;;;;;;-1.59;58.80;102596.28;5010629;28;20388;-86
2021/01/04 08:11:26;;;;;;;;;;;;;;;-1.61;58.91;102600.09;4979488;28;19954;-85
2021/01/04 08:14:11;;;;;;;;;;;;;;;-1.59;58.90;102604.44;5024905;28;19913;-84
2021/01/04 08:16:41;;;;;;;;;;;;;;;-1.76;59.50;102585.88;4997055;28;19946;-84
2021/01/04 08:19:09;;;;;;;;;;;;;;;-1.66;59.56;102573.31;5014459;28;19914;-87
2021/01/04 08:22:07;;;;;;;;;;;;;;;-1.57;59.10;102586.13;4976811;28;19914;-88
2021/01/04 08:24:43;;;;;;;;;;;;;;;-1.73;59.65;102586.50;4955491;28;19965;-84
2021/01/04 08:27:27;;;;;;;;;;;;;;;-1.70;59.91;102580.84;5012360;28;20036;-87
2021/01/04 08:29:54;;;;;;;;;;;;;;;-1.72;59.49;102569.22;4994111;28;19941;-89
2021/01/04 08:32:40;;;;;;;;;;;;;;;-1.59;59.36;102557.38;4976374;28;19914;-87
2021/01/04 08:35:14;;;;;;;;;;;;;;;-1.54;58.99;102553.28;4991627;28;20482;-86
2021/01/04 08:37:42;;;;;;;;;;;;;;;-1.80;59.43;102558.97;4978316;28;19918;-88
2021/01/04 08:40:12;;;;;;;;;;;;;;;-1.80;59.44;102567.13;5016998;28;19925;-83
2021/01/04 08:42:39;;;;;;;;;;;;;;;-1.85;59.30;102585.63;5019128;28;19921;-86
2021/01/04 08:45:09;;;;;;;;;;;;;;;-1.75;59.76;102576.75;4977687;28;19914;-88
2021/01/04 08:47:38;;;;;;;;;;;;;;;-1.70;59.53;102577.25;5007515;28;20385;-87
2021/01/04 08:50:10;;;;;;;;;;;;;;;-1.72;60.27;102563.78;5007651;28;20441;-87
2021/01/04 08:52:43;;;;;;;;;;;;;;;-1.82;60.69;102571.84;4981439;28;20401;-84
2021/01/04 08:55:09;;;;;;;;;;;;;;;-1.74;60.37;102562.22;4976514;28;19917;-88
2021/01/04 08:57:39;;;;;;;;;;;;;;;-1.66;60.14;102554.28;4974904;28;19925;-89
2021/01/04 09:00:16;;;;;;;;;;;;;;;-1.66;59.98;102565.16;4976556;28;20360;-88
2021/01/04 09:02:43;;;;;;;;;;;;;;;-1.64;59.95;102557.75;4976662;28;19984;-87
2021/01/04 09:05:14;;;;;;;;;;;;;;;-1.55;60.28;102551.56;5007510;28;20008;-89
2021/01/04 09:07:51;;;;;;;;;;;;;;;-1.67;60.59;102542.56;5006750;28;20293;-90
2021/01/04 09:10:23;;;;;;;;;;;;;;;-1.50;60.19;102544.91;5007010;28;20366;-86
2021/01/04 09:12:52;;;;;;;;;;;;;;;-1.57;59.84;102547.22;5006661;28;20004;-87
2021/01/04 09:15:21;;;;;;;;;;;;;;;-1.57;59.44;102547.22;4990011;28;19918;-87
2021/01/04 09:17:50;;;;;;;;;;;;;;;-1.47;59.30;102541.91;5006105;28;19961;-89
2021/01/04 09:20:19;;;;;;;;;;;;;;;-1.55;59.28;102524.38;4989881;28;19920;-87
2021/01/04 09:22:49;;;;;;;;;;;;;;;-1.42;59.17;102518.81;5006234;28;19924;-86
2021/01/04 09:25:20;;;;;;;;;;;;;;;-1.48;59.17;102527.50;4974952;28;20434;-85
2021/01/04 09:27:47;;;;;;;;;;;;;;;-1.55;59.44;102527.09;5006342;28;19913;-89
2021/01/04 09:30:18;;;;;;;;;;;;;;;-1.54;58.83;102519.84;5005844;28;19976;-85
2021/01/04 09:32:44;;;;;;;;;;;;;;;-1.50;59.21;102542.19;4974128;28;19953;-87
2021/01/04 09:35:37;;;;;;;;;;;;;;;-1.43;59.35;102538.81;4989443;28;19914;-86
2021/01/04 09:38:07;;;;;;;;;;;;;;;-1.41;59.07;102535.97;4971365;28;20012;-89
2021/01/04 09:40:34;;;;;;;;;;;;;;;-1.54;59.41;102536.97;4974622;28;19933;-87
2021/01/04 09:43:11;;;;;;;;;;;;;;;-1.57;59.53;102528.22;5015725;28;20434;-84
2021/01/04 09:45:38;;;;;;;;;;;;;;;-1.58;59.90;102543.66;5012923;28;20025;-88
2021/01/04 09:48:10;;;;;;;;;;;;;;;-1.52;59.54;102554.03;5010597;28;19949;-87
2021/01/04 09:50:50;;;;;;;;;;;;;;;-1.32;58.97;102542.53;4974773;28;20013;-88
2021/01/04 09:53:21;;;;;;;;;;;;;;;-1.38;59.06;102549.31;5005094;28;19957;-88
2021/01/04 09:55:48;;;;;;;;;;;;;;;-1.28;59.11;102547.56;4974782;28;19940;-87
2021/01/04 09:58:17;;;;;;;;;;;;;;;-1.28;59.21;102550.28;4974456;28;19948;-88
2021/01/04 10:00:45;;;;;;;;;;;;;;;-1.50;59.97;102525.88;4974638;28;19918;-88
2021/01/04 10:03:15;;;;;;;;;;;;;;;-1.47;60.12;102503.88;4975584;28;19914;-87
2021/01/04 10:05:44;;;;;;;;;;;;;;;-1.57;60.38;102514.63;4987118;28;20286;-83
2021/01/04 10:08:29;;;;;;;;;;;;;;;-1.52;60.99;102517.84;5013490;28;19914;-87
2021/01/04 10:10:59;;;;;;;;;;;;;;;-1.43;60.54;102517.09;5005837;28;19918;-88
2021/01/04 10:13:26;;;;;;;;;;;;;;;-1.42;60.53;102510.66;5005108;28;19973;-87
2021/01/04 10:15:54;;;;;;;;;;;;;;;-1.31;60.19;102514.34;5007069;28;19914;-85
2021/01/04 10:18:23;;;;;;;;;;;;;;;-1.26;60.38;102529.28;4991581;28;19961;-84
2021/01/04 10:20:51;;;;;;;;;;;;;;;-1.14;60.12;102545.53;5004915;28;19981;-86
2021/01/04 10:23:47;;;;;;;;;;;;;;;-1.04;59.63;102548.34;4973563;28;19922;-85
2021/01/04 10:26:13;;;;;;;;;;;;;;;-1.40;61.13;102540.44;4964233;28;19941;-87
2021/01/04 10:28:40;;;;;;;;;;;;;;;-1.40;61.29;102543.13;4974181;28;20015;-88
2021/01/04 10:31:09;;;;;;;;;;;;;;;-1.25;60.78;102541.88;4972269;28;20343;-87
2021/01/04 10:33:39;;;;;;;;;;;;;;;-1.25;60.88;102524.72;4974145;28;19922;-87
2021/01/04 10:36:05;;;;;;;;;;;;;;;-1.24;61.24;102502.81;4973795;28;19922;-86
2021/01/04 10:38:33;;;;;;;;;;;;;;;-1.31;61.66;102517.06;4973846;28;20401;-88
2021/01/04 10:40:59;;;;;;;;;;;;;;;-1.31;62.08;102531.50;4973943;28;20342;-87
2021/01/04 10:43:26;;;;;;;;;;;;;;;-1.21;61.89;102528.03;4973371;28;19910;-87
2021/01/04 10:45:53;;;;;;;;;;;;;;;-1.14;61.88;102521.06;5004880;28;19925;-87
2021/01/04 10:48:22;;;;;;;;;;;;;;;-1.12;61.48;102500.09;5004617;28;20010;-86
2021/01/04 10:51:00;;;;;;;;;;;;;;;-1.32;62.28;102502.59;5004626;28;19921;-86
2021/01/04 10:53:29;;;;;;;;;;;;;;;-1.18;62.41;102516.91;4973444;28;19924;-86
2021/01/04 10:56:13;;;;;;;;;;;;;;;-1.24;62.86;102516.41;4972897;28;19957;-86
2021/01/04 10:58:39;;;;;;;;;;;;;;;-1.23;62.60;102514.56;4973407;28;20040;-86
2021/01/04 11:01:08;;;;;;;;;;;;;;;-1.31;62.96;102514.34;4973183;28;19957;-87
2021/01/04 11:03:35;;;;;;;;;;;;;;;-1.24;63.05;102510.13;5004317;28;19988;-86
2021/01/04 11:06:01;;;;;;;;;;;;;;;-1.33;62.49;102478.25;4987950;28;20335;-86
2021/01/04 11:08:30;;;;;;;;;;;;;;;-0.98;62.29;102488.03;4972855;28;19914;-86
2021/01/04 11:11:00;;;;;;;;;;;;;;;-0.86;62.20;102507.88;5003870;28;20008;-85
2021/01/04 11:13:27;;;;;;;;;;;;;;;-1.01;62.20;102516.34;4972572;28;19921;-86
2021/01/04 11:16:14;;;;;;;;;;;;;;;-0.93;62.35;102506.66;4972524;28;20001;-84
2021/01/04 11:18:49;;;;;;;;;;;;;;;-0.86;62.07;102487.00;4971127;28;19918;-85
2021/01/04 11:21:16;;;;;;;;;;;;;;;-0.90;62.19;102499.13;4972547;28;19918;-86
2021/01/04 11:23:42;;;;;;;;;;;;;;;-0.86;61.82;102502.44;4973112;28;19962;-86
2021/01/04 11:26:09;;;;;;;;;;;;;;;-0.93;62.05;102488.50;4978215;28;19906;-85
2021/01/04 11:28:35;;;;;;;;;;;;;;;-0.81;62.02;102473.00;4973216;28;19914;-85
2021/01/04 11:31:02;;;;;;;;;;;;;;;-1.09;62.84;102472.63;4972973;28;20009;-87
2021/01/04 11:33:28;;;;;;;;;;;;;;;-1.18;63.37;102470.69;5004074;28;19914;-87
2021/01/04 11:35:55;;;;;;;;;;;;;;;-1.14;63.16;102464.00;4971666;28;19925;-88
2021/01/04 11:38:21;;;;;;;;;;;;;;;-1.19;63.30;102475.25;5004310;28;20390;-85
2021/01/04 11:40:48;;;;;;;;;;;;;;;-1.02;62.55;102476.56;4973096;28;19922;-84
2021/01/04 11:43:14;;;;;;;;;;;;;;;-1.15;62.65;102486.72;4972937;28;19921;-89
2021/01/04 11:45:41;;;;;;;;;;;;;;;-1.10;62.86;102495.38;5004230;28;19914;-87
2021/01/04 11:48:07;;;;;;;;;;;;;;;-1.08;63.12;102493.38;4972910;28;20397;-85
2021/01/04 11:50:33;;;;;;;;;;;;;;;-1.04;62.77;102483.97;4972920;28;19986;-87
2021/01/04 11:52:59;;;;;;;;;;;;;;;-0.90;61.67;102462.91;4972499;28;20411;-88
2021/01/04 11:55:26;;;;;;;;;;;;;;;-1.20;61.94;102469.97;4975434;28;20374;-87
2021/01/04 11:57:52;;;;;;;;;;;;;;;-1.14;61.91;102480.28;4977639;28;20009;-86
2021/01/04 12:00:20;;;;;;;;;;;;;;;-1.16;62.28;102483.16;4978108;28;19918;-87
2021/01/04 12:02:46;;;;;;;;;;;;;;;-1.08;62.15;102470.78;5007904;28;20362;-87
2021/01/04 12:05:14;;;;;;;;;;;;;;;-1.33;62.26;102468.28;5007315;28;20306;-87
2021/01/04 12:07:40;;;;;;;;;;;;;;;-1.29;62.88;102461.59;5009409;28;19914;-86
2021/01/04 12:10:07;;;;;;;;;;;;;;;-1.31;63.08;102465.44;4979337;28;19914;-89
2021/01/04 12:12:33;;;;;;;;;;;;;;;-1.18;62.37;102468.81;4991144;28;19914;-87
2021/01/04 12:14:59;;;;;;;;;;;;;;;-1.12;62.21;102481.06;4974343;28;19925;-88
2021/01/04 12:17:25;;;;;;;;;;;;;;;-1.15;62.52;102478.56;5009570;28;19940;-86
2021/01/04 12:19:52;;;;;;;;;;;;;;;-1.09;62.31;102466.34;4979243;28;19925;-88
2021/01/04 12:22:18;;;;;;;;;;;;;;;-1.11;62.81;102466.47;4978466;28;20016;-89
2021/01/04 12:24:48;;;;;;;;;;;;;;;-1.23;62.82;102487.41;4978482;28;20282;-86
2021/01/04 12:27:16;;;;;;;;;;;;;;;-1.12;62.26;102475.63;4975239;28;19914;-86
2021/01/04 12:29:46;;;;;;;;;;;;;;;-1.12;61.74;102481.91;5007317;28;20374;-86
2021/01/04 12:32:12;;;;;;;;;;;;;;;-0.95;61.48;102486.91;5006728;28;19957;-86
2021/01/04 12:34:39;;;;;;;;;;;;;;;-0.95;60.63;102498.63;4975586;28;20036;-87
2021/01/04 12:37:06;;;;;;;;;;;;;;;-0.94;60.54;102504.94;4975771;28;20005;-85
2021/01/04 12:39:32;;;;;;;;;;;;;;;-0.98;60.88;102505.22;4975496;28;19957;-85
2021/01/04 12:41:58;;;;;;;;;;;;;;;-0.98;60.82;102516.09;5007009;28;19914;-88
2021/01/04 12:44:25;;;;;;;;;;;;;;;-1.03;60.95;102504.75;4974480;28;20433;-88
2021/01/04 12:46:52;;;;;;;;;;;;;;;-1.06;61.10;102517.72;5007220;28;19914;-87
2021/01/04 12:49:19;;;;;;;;;;;;;;;-1.04;61.72;102522.03;4975669;28;20363;-87
2021/01/04 12:51:50;;;;;;;;;;;;;;;-1.11;61.79;102523.56;5007091;28;20370;-86
2021/01/04 12:54:17;;;;;;;;;;;;;;;-1.12;61.60;102506.38;4975492;28;19914;-86
2021/01/04 12:56:44;;;;;;;;;;;;;;;-1.14;61.83;102515.63;4975920;28;19936;-87
2021/01/04 12:59:11;;;;;;;;;;;;;;;-1.03;61.08;102520.19;4975404;28;19914;-87
2021/01/04 13:01:38;;;;;;;;;;;;;;;-1.11;61.09;102526.28;4974268;28;19965;-88
2021/01/04 13:04:04;;;;;;;;;;;;;;;-1.10;61.15;102517.13;4990656;28;20279;-87